Lake Cuyamaca (79) Station Data

Red Flag Warning: Yes
Fire Weather Zone: 258
SDGE Region: Mountain Empire
Lat/Lon: 32.997/-116.595

Observations

Time Wind Speed/Gust Temp(F) RH Fuel Moist Fuel Temp(F) Dewpt(F) Tmax(F) Tmin(F) Accum Precip 10-min Precip SL Press(mb)
6/27 5:00pm 248 19 G 28 77° 19% - - 32° 81.4° 68.3° - - -
6/27 4:50pm 252 18 G 26 78° 19% - - 32° 81.4° 68.3° - - -
6/27 4:40pm 255 17 G 26 78° 18% - - 31° 81.4° 68.3° - - -
6/27 4:30pm 251 20 G 27 78° 18% - - 30° 81.4° 68.3° - - -
6/27 4:20pm 248 21 G 30 78° 17% - - 29° 81.4° 68.3° - - -
6/27 4:10pm 252 19 G 27 78° 17% - - 30° 81.4° 68.3° - - -
6/27 4:00pm 253 20 G 30 79° 17% - - 30° 81.4° 68.3° - - -
6/27 3:50pm 255 19 G 29 79° 19% - - 33° 81.4° 68.3° - - -
6/27 3:40pm 252 19 G 30 79° 20% - - 34° 81.4° 68.3° - - -
6/27 3:30pm 255 18 G 28 79° 19% - - 33° 81.4° 68.3° - - -
6/27 3:20pm 255 20 G 31 79° 19% - - 34° 81.4° 68.3° - - -
6/27 3:10pm 250 19 G 30 79° 20% - - 35° 81.4° 68.3° - - -
6/27 3:00pm 252 19 G 27 79° 21% - - 35° 81.4° 68.3° - - -
6/27 2:50pm 247 19 G 32 80° 21% - - 36° 81.4° 68.3° - - -
6/27 2:40pm 243 19 G 29 79° 20% - - 35° 81.4° 68.3° - - -
6/27 2:30pm 243 18 G 28 80° 19% - - 35° 81.4° 68.3° - - -
6/27 2:10pm 250 19 G 28 80° 15% - - 28° 81.4° 68.3° - - -
6/27 2:00pm 249 18 G 27 81° 15% - - 28° 81.4° 68.3° - - -
6/27 1:50pm 242 17 G 27 80° 14% - - 28° 81.4° 68.3° - - -
6/27 1:40pm 246 20 G 31 80° 14% - - 27° 81.4° 68.3° - - -
6/27 1:30pm 253 18 G 27 81° 14% - - 27° 81.4° 68.3° - - -
6/27 1:20pm 255 18 G 26 81° 13% - - 25° 81.4° 68.3° - - -
6/27 1:10pm 253 17 G 29 80° 12% - - 24° 81.4° 68.3° - - -
6/27 1:00pm 254 16 G 28 81° 13% - - 25° 81.4° 68.3° - - -
6/27 12:50pm 252 17 G 28 80° 12% - - 23° 80.4° 68.3° - - -
6/27 12:40pm 256 17 G 28 80° 12% - - 23° 80.4° 68.3° - - -
6/27 12:30pm 264 15 G 26 80° 12% - - 23° 80.3° 68.3° - - -
6/27 12:20pm 263 17 G 27 79° 12% - - 21° 79.4° 68.3° - - -
6/27 12:10pm 252 19 G 29 79° 12% - - 21° 79.2° 68.3° - - -
6/27 12:00pm 254 17 G 26 79° 12% - - 21° 79° 68.3° - - -
6/27 11:40am 251 17 G 26 78° 12% - - 22° 78.3° 68.3° - - -
6/27 11:30am 255 16 G 24 78° 12% - - 22° 78.3° 68.3° - - -
6/27 11:20am 255 16 G 23 78° 12% - - 22° 78° 68.3° - - -
6/27 11:10am 256 15 G 24 78° 13% - - 22° 78° 68.3° - - -
6/27 11:00am 257 14 G 23 77° 13% - - 23° 77.8° 68.3° - - -
6/27 10:50am 258 13 G 19 77° 13% - - 23° 77.4° 68.3° - - -
6/27 10:40am 252 14 G 21 76° 13% - - 22° 76.7° 68.3° - - -
6/27 10:30am 252 14 G 21 76° 13% - - 22° 76.6° 68.3° - - -
6/27 10:20am 257 13 G 20 76° 13% - - 22° 76.3° 68.3° - - -
6/27 10:10am 257 11 G 17 76° 14% - - 23° 76.1° 68.3° - - -
6/27 10:00am 248 12 G 19 76° 13% - - 22° 76.1° 68.3° - - -
6/27 9:50am 255 11 G 19 76° 13% - - 22° 75.8° 68.3° - - -
6/27 9:40am 250 11 G 17 75° 13% - - 22° 75.7° 68.3° - - -
6/27 9:30am 260 9 G 15 75° 13% - - 21° 75.4° 68.3° - - -
6/27 9:20am 264 9 G 15 75° 14% - - 22° 75.1° 68.3° - - -
6/27 9:10am 265 9 G 16 74° 13% - - 21° 74.7° 68.3° - - -
6/27 8:50am 259 11 G 18 74° 12% - - 19° 73.9° 68.3° - - -
6/27 8:40am 262 10 G 16 73° 12% - - 18° 73.6° 68.3° - - -
6/27 8:30am 271 9 G 16 73° 13% - - 19° 72.9° 68.3° - - -
6/27 8:20am 274 10 G 15 72° 13% - - 18° 72.4° 68.3° - - -
6/27 8:10am 283 10 G 13 72° 13% - - 18° 72.2° 68.3° - - -
6/27 8:00am 283 10 G 14 72° 13% - - 18° 71.9° 68.3° - - -
6/27 7:20am 285 9 G 14 70° 12% - - 16° 71.8° 68.3° - - -
6/27 7:10am 285 9 G 12 70° 12% - - 15° 71.8° 68.3° - - -
6/27 7:00am 291 9 G 12 70° 12% - - 15° 71.8° 68.3° - - -
6/27 6:50am 296 9 G 13 69° 12% - - 15° 71.8° 68.3° - - -
6/27 6:30am 295 9 G 14 69° 13% - - 16° 71.8° 68.3° - - -
6/27 6:20am 285 10 G 17 70° 13% - - 16° 71.8° 68.3° - - -
6/27 5:50am 291 11 G 14 69° 13% - - 15° 71.8° 68.3° - - -
6/27 5:40am 286 10 G 15 69° 13% - - 16° 71.8° 68.3° - - -
6/27 5:30am 291 9 G 13 69° 13% - - 16° 71.8° 68.3° - - -
6/27 5:20am 286 10 G 14 69° 13% - - 16° 71.8° 68.7° - - -
6/27 5:10am 279 11 G 18 70° 13% - - 17° 71.8° 69.1° - - -
6/27 5:00am 276 10 G 16 70° 13% - - 17° 71.8° 69.2° - - -
6/27 4:50am 272 10 G 18 70° 13% - - 17° 71.8° 69.2° - - -
6/27 4:40am 274 10 G 15 70° 13% - - 17° 71.8° 69.4° - - -
6/27 4:30am 276 10 G 16 70° 13% - - 17° 71.8° 69.5° - - -
6/27 4:20am 273 11 G 17 70° 13% - - 17° 71.8° 69.5° - - -
6/27 4:10am 273 11 G 19 70° 13% - - 18° 71.8° 69.5° - - -
6/27 4:00am 272 11 G 17 70° 13% - - 18° 71.8° 69.5° - - -
6/27 3:50am 276 11 G 17 70° 13% - - 18° 71.8° 69.5° - - -
6/27 3:40am 274 12 G 17 70° 13% - - 18° 71.8° 69.9° - - -
6/27 3:30am 271 12 G 19 70° 13% - - 18° 71.8° 69.9° - - -
6/27 3:20am 273 12 G 17 71° 13% - - 18° 71.8° 69.9° - - -
6/27 3:10am 276 12 G 19 70° 14% - - 18° 71.8° 69.9° - - -
6/27 3:00am 271 12 G 18 70° 14% - - 18° 71.8° 69.9° - - -
6/27 2:50am 274 13 G 19 70° 14% - - 18° 71.8° 70° - - -
6/27 2:40am 276 13 G 20 70° 14% - - 18° 71.8° 70° - - -
6/27 2:30am 272 13 G 20 70° 14% - - 18° 71.8° 70° - - -
6/27 2:20am 268 13 G 20 71° 13% - - 18° 71.8° 70.3° - - -
6/27 2:10am 272 13 G 20 71° 13% - - 18° 71.8° 70.3° - - -
6/27 2:00am 268 13 G 20 71° 13% - - 18° 71.8° 70.3° - - -
6/27 1:50am 269 12 G 18 71° 13% - - 18° 71.8° 70.3° - - -
6/27 1:40am 273 12 G 19 71° 13% - - 18° 71.8° 70.3° - - -
6/27 1:30am 273 13 G 19 71° 13% - - 17° 71.8° 70.3° - - -
6/27 1:20am 276 14 G 19 71° 12% - - 17° 71.8° 70.3° - - -
6/27 1:10am 273 14 G 20 71° 12% - - 16° 71.8° 70.3° - - -
6/27 1:00am 281 13 G 18 71° 12% - - 15° 71.8° 70.3° - - -
6/27 12:50am 283 13 G 19 71° 11% - - 14° 71.8° 70.3° - - -
6/27 12:40am 281 13 G 19 71° 11% - - 13° 71.8° 70.6° - - -
6/27 12:30am 281 14 G 20 71° 10% - - 13° 71.8° 70.9° - - -
6/27 12:20am 274 16 G 25 72° 10% - - 12° 71.8° 71.3° - - -
6/27 12:10am 272 17 G 25 72° 10% - - 13° 71.8° 71.3° - - -
6/27 12:00am 272 17 G 28 72° 10% - - 13° 88° 71.3° - - -
6/26 11:50pm 272 18 G 27 72° 11% - - 14° 88° 71.4° - - -
6/26 11:40pm 274 18 G 25 72° 11% - - 14° 88° 71.7° - - -
6/26 11:30pm 272 18 G 26 72° 11% - - 15° 88° 71.7° - - -
6/26 11:20pm 273 17 G 26 72° 11% - - 15° 88° 71.7° - - -
6/26 11:10pm 273 16 G 23 72° 12% - - 16° 88° 71.8° - - -
6/26 11:00pm 271 16 G 22 72° 12% - - 16° 88° 71.8° - - -
6/26 10:50pm 272 14 G 20 73° 11% - - 16° 88° 71.8° - - -
6/26 10:40pm 277 13 G 19 73° 11% - - 16° 88° 71.8° - - -
6/26 10:30pm 277 12 G 18 72° 12% - - 16° 88° 71.8° - - -
6/26 10:20pm 280 10 G 16 72° 12% - - 17° 88° 71.8° - - -
6/26 10:10pm 277 9 G 13 73° 12% - - 17° 88° 71.9° - - -
6/26 10:00pm 279 9 G 13 72° 12% - - 16° 88° 71.9° - - -
6/26 9:50pm 282 9 G 15 72° 12% - - 16° 88° 72° - - -
6/26 9:40pm 286 8 G 13 73° 12% - - 17° 88° 72° - - -
6/26 9:30pm 291 8 G 12 72° 12% - - 17° 88° 72° - - -
6/26 9:20pm 289 8 G 12 72° 13% - - 18° 88° 72° - - -
6/26 9:10pm 281 8 G 12 72° 13% - - 18° 88° 72° - - -
6/26 9:00pm 284 9 G 14 72° 13% - - 19° 88° 72° - - -
6/26 8:50pm 286 9 G 12 73° 13% - - 19° 88° 72.2° - - -
6/26 8:40pm 280 9 G 15 73° 13% - - 19° 88° 72.5° - - -
6/26 8:30pm 275 11 G 17 74° 13% - - 20° 88° 73.2° - - -
6/26 8:20pm 273 10 G 16 74° 13% - - 20° 88° 73.4° - - -
6/26 8:10pm 270 10 G 16 74° 13% - - 20° 88° 74° - - -
6/26 8:00pm 267 10 G 16 75° 13% - - 20° 88° 74.6° - - -
6/26 7:50pm 258 10 G 18 76° 12% - - 20° 88° 75.4° - - -
6/26 7:40pm 258 10 G 17 77° 12% - - 20° 88° 76.1° - - -
6/26 7:30pm 255 12 G 18 77° 12% - - 20° 88° 76.8° - - -
6/26 7:20pm 258 11 G 17 78° 12% - - 21° 88° 77.4° - - -
6/26 7:10pm 252 14 G 20 78° 12% - - 22° 88° 77.4° - - -
6/26 7:00pm 251 14 G 21 79° 11% - - 21° 88° 77.4° - - -
6/26 6:50pm 249 15 G 20 80° 12% - - 22° 88° 77.4° - - -
6/26 6:40pm 250 14 G 21 80° 12% - - 23° 88° 77.4° - - -
6/26 6:30pm 251 15 G 21 81° 11% - - 22° 88° 77.4° - - -
6/26 6:20pm 249 16 G 24 81° 11% - - 22° 88° 77.4° - - -
6/26 6:10pm 250 15 G 23 82° 11% - - 22° 88° 77.4° - - -
6/26 6:00pm 269 14 G 24 82° 11% - - 21° 88° 77.4° - - -
6/26 5:50pm 254 14 G 21 83° 11% - - 23° 88° 77.4° - - -
6/26 5:40pm 260 13 G 21 83° 12% - - 25° 88° 77.4° - - -
6/26 5:30pm 264 13 G 21 84° 12% - - 25° 88° 77.4° - - -
6/26 5:20pm 272 14 G 22 83° 12% - - 25° 88° 77.4° - - -
6/26 5:10pm 263 13 G 20 84° 12% - - 26° 88° 77.4° - - -
6/26 5:00pm 275 16 G 28 83° 11% - - 24° 88° 77.4° - - -
6/26 4:50pm 272 16 G 25 84° 11% - - 25° 88° 77.4° - - -
6/26 4:40pm 266 14 G 23 85° 12% - - 26° 88° 77.4° - - -
6/26 4:30pm 269 14 G 24 85° 12% - - 27° 88° 77.4° - - -
6/26 4:20pm 271 14 G 21 85° 12% - - 27° 88° 77.4° - - -
6/26 4:10pm 266 14 G 25 85° 12% - - 26° 88° 77.4° - - -
6/26 4:00pm 275 14 G 25 85° 12% - - 26° 88° 77.4° - - -
6/26 3:50pm 261 13 G 21 86° 12% - - 26° 88° 77.4° - - -
6/26 3:40pm 264 13 G 22 86° 11% - - 26° 88° 77.4° - - -
6/26 3:30pm 253 15 G 28 86° 11% - - 26° 88° 77.4° - - -
6/26 3:20pm 268 13 G 23 86° 12% - - 27° 88° 77.4° - - -
6/26 3:10pm 258 14 G 27 87° 12% - - 28° 88° 77.4° - - -
6/26 3:00pm 273 13 G 24 86° 12% - - 27° 88° 77.4° - - -
6/26 2:50pm 261 13 G 21 87° 12% - - 27° 88° 77.4° - - -
6/26 2:40pm 270 12 G 25 86° 12% - - 27° 88° 77.4° - - -
6/26 2:30pm 269 14 G 20 86° 12% - - 27° 88° 77.4° - - -
6/26 2:20pm 261 15 G 24 86° 12% - - 27° 88° 77.4° - - -
6/26 2:10pm 262 14 G 26 86° 12% - - 27° 88° 77.4° - - -
6/26 2:00pm 251 13 G 22 87° 12% - - 28° 88° 77.4° - - -
6/26 1:50pm 243 14 G 24 87° 11% - - 27° 87.9° 77.4° - - -
6/26 1:40pm 249 13 G 22 87° 12% - - 28° 87.9° 77.4° - - -
6/26 1:30pm 261 12 G 22 87° 12% - - 27° 87.9° 77.4° - - -
6/26 1:20pm 264 14 G 24 86° 11% - - 26° 87.9° 77.4° - - -
6/26 1:10pm 271 13 G 23 86° 12% - - 27° 87.9° 77.4° - - -
6/26 1:00pm 265 12 G 27 87° 12% - - 28° 87.9° 77.4° - - -
6/26 12:50pm 272 11 G 19 87° 12% - - 28° 87.3° 77.4° - - -
6/26 12:40pm 268 12 G 22 86° 12% - - 27° 87° 77.4° - - -
6/26 12:30pm 261 12 G 22 86° 12% - - 27° 87° 77.4° - - -
6/26 12:20pm 262 12 G 21 87° 12% - - 28° 87° 77.4° - - -
6/26 12:10pm 256 11 G 20 86° 12% - - 28° 86.8° 77.4° - - -
6/26 12:00pm 258 12 G 22 86° 12% - - 27° 86.4° 77.4° - - -
6/26 11:50am 268 11 G 22 86° 13% - - 29° 86.2° 77.4° - - -
6/26 11:40am 255 12 G 21 86° 13% - - 29° 86.2° 77.4° - - -
6/26 11:30am 267 11 G 18 85° 13% - - 29° 85.9° 77.4° - - -
6/26 11:20am 269 11 G 22 85° 13% - - 29° 85.6° 77.4° - - -
6/26 11:10am 263 11 G 19 85° 14% - - 30° 85.3° 77.4° - - -
6/26 11:00am 259 10 G 17 84° 14% - - 30° 85° 77.4° - - -
6/26 10:50am 268 11 G 17 84° 14% - - 30° 84.4° 77.4° - - -
6/26 10:40am 264 10 G 18 84° 14% - - 30° 84.2° 77.4° - - -
6/26 10:30am 270 9 G 17 83° 15% - - 30° 83.8° 77.4° - - -
6/26 10:20am 277 9 G 14 83° 15% - - 30° 83.5° 77.4° - - -
6/26 10:10am 277 9 G 17 83° 14% - - 29° 83.2° 77.4° - - -
6/26 10:00am 269 10 G 17 83° 14% - - 29° 82.7° 77.4° - - -
6/26 9:50am 264 9 G 18 82° 14% - - 29° 82.7° 77.4° - - -
6/26 9:40am 272 8 G 14 82° 15% - - 29° 82.3° 77.4° - - -
6/26 9:30am 276 9 G 14 82° 15% - - 29° 81.9° 77.4° - - -
6/26 9:20am 278 8 G 13 81° 15% - - 29° 81.7° 77.4° - - -
6/26 9:10am 279 8 G 13 81° 14% - - 28° 81.4° 77.4° - - -
6/26 9:00am 277 8 G 11 81° 14% - - 28° 81.1° 77.4° - - -
6/26 8:50am 276 7 G 10 81° 14% - - 28° 80.9° 77.4° - - -
6/26 8:40am 284 7 G 11 80° 14% - - 27° 80.6° 77.4° - - -
6/26 8:30am 285 7 G 9 80° 15% - - 28° 80.2° 77.4° - - -
6/26 8:20am 300 8 G 12 79° 15% - - 28° 79.6° 77.4° - - -
6/26 8:10am 300 8 G 11 79° 15% - - 28° 79.6° 77.4° - - -
6/26 8:00am 303 9 G 12 79° 14% - - 26° 79.6° 77.4° - - -
6/26 7:50am 305 10 G 14 79° 14% - - 25° 79.6° 77.4° - - -
6/26 7:40am 306 10 G 14 79° 14% - - 25° 79.5° 77.4° - - -
6/26 7:30am 308 11 G 14 79° 13% - - 24° 79.5° 77.4° - - -
6/26 7:20am 308 10 G 13 79° 13% - - 24° 79.5° 77.4° - - -
6/26 7:10am 307 10 G 12 79° 13% - - 24° 79.5° 77.4° - - -
6/26 7:00am 308 10 G 13 78° 13% - - 24° 79.5° 77.4° - - -
6/26 6:50am 304 10 G 13 78° 13% - - 24° 79.5° 77.4° - - -
6/26 6:40am 306 10 G 12 78° 13% - - 24° 79.5° 77.4° - - -
6/26 6:30am 304 10 G 13 78° 13% - - 24° 79.5° 77.4° - - -
6/26 6:20am 305 11 G 13 78° 13% - - 24° 79.5° 77.4° - - -
6/26 6:10am 305 11 G 13 78° 13% - - 24° 79.5° 77.4° - - -
6/26 6:00am 304 11 G 14 78° 13% - - 24° 79.5° 77.4° - - -
6/26 5:50am 305 11 G 14 78° 13% - - 24° 79.5° 77.4° - - -